createdAt,value
2022-09-27T00:00:42.420Z,2.10
2022-09-27T00:03:11.384Z,1.96
2022-09-27T00:05:39.034Z,2.16
2022-09-27T00:08:07.205Z,2.22
2022-09-27T00:10:35.265Z,1.95
2022-09-27T00:13:02.944Z,1.70
2022-09-27T00:15:30.469Z,1.95
2022-09-27T00:17:58.414Z,1.95
2022-09-27T00:20:26.498Z,1.75
2022-09-27T00:22:54.049Z,1.66
2022-09-27T00:25:22.573Z,1.65
2022-09-27T00:27:51.316Z,1.67
2022-09-27T00:30:18.825Z,1.66
2022-09-27T00:32:46.935Z,1.76
2022-09-27T00:35:14.610Z,1.85
2022-09-27T00:37:42.139Z,1.91
2022-09-27T00:40:10.279Z,1.86
2022-09-27T00:42:37.976Z,1.88
2022-09-27T00:45:13.306Z,1.98
2022-09-27T00:47:50.096Z,2.08
2022-09-27T00:50:26.841Z,2.12
2022-09-27T00:53:13.111Z,2.08
2022-09-27T00:55:43.666Z,2.06
2022-09-27T00:58:14.072Z,1.97
2022-09-27T01:00:45.196Z,1.84
2022-09-27T01:03:15.779Z,1.76
2022-09-27T01:05:43.371Z,1.62
2022-09-27T01:08:10.875Z,1.61
2022-09-27T01:10:46.697Z,1.61
2022-09-27T01:13:20.957Z,1.61
2022-09-27T01:15:51.904Z,1.62
2022-09-27T01:18:51.952Z,1.65
2022-09-27T01:21:19.855Z,1.64
2022-09-27T01:23:53.191Z,1.62
2022-09-27T01:26:45.688Z,1.61
2022-09-27T01:29:36.895Z,1.63
2022-09-27T01:32:27.441Z,1.61
2022-09-27T01:35:02.127Z,1.59
2022-09-27T01:37:30.329Z,1.57
2022-09-27T01:40:07.186Z,1.56
2022-09-27T01:42:50.602Z,1.46
2022-09-27T01:45:35.595Z,1.32
2022-09-27T01:48:10.397Z,1.31
2022-09-27T01:50:45.936Z,1.21
2022-09-27T01:53:23.327Z,1.19
2022-09-27T01:55:53.894Z,1.15
2022-09-27T01:58:27.727Z,1.18
2022-09-27T02:00:56.229Z,1.16
2022-09-27T02:03:36.199Z,0.98
2022-09-27T02:06:15.365Z,0.95
2022-09-27T02:08:50.053Z,0.98
2022-09-27T02:14:16.015Z,0.84
2022-09-27T02:16:53.018Z,0.86
2022-09-27T02:19:27.653Z,0.81
2022-09-27T02:22:15.574Z,0.78
2022-09-27T02:24:49.877Z,0.83
2022-09-27T02:27:21.796Z,0.82
2022-09-27T02:30:09.643Z,0.72
2022-09-27T02:32:37.264Z,0.67
2022-09-27T02:35:11.110Z,0.71
2022-09-27T02:37:39.111Z,0.66
2022-09-27T02:40:07.515Z,0.54
2022-09-27T02:42:35.674Z,0.44
2022-09-27T02:45:04.981Z,0.35
2022-09-27T02:47:35.453Z,0.33
2022-09-27T02:50:06.885Z,0.28
2022-09-27T02:52:58.737Z,0.20
2022-09-27T02:55:39.931Z,0.13
2022-09-27T02:58:22.847Z,0.16
2022-09-27T03:01:00.490Z,0.10
2022-09-27T03:03:50.967Z,0.25
2022-09-27T03:06:20.669Z,0.32
2022-09-27T03:08:48.881Z,0.37
2022-09-27T03:11:17.198Z,0.44
2022-09-27T03:14:06.809Z,0.46
2022-09-27T03:16:34.483Z,0.43
2022-09-27T03:19:04.115Z,0.43
2022-09-27T03:21:35.320Z,0.49
2022-09-27T03:24:03.366Z,0.56
2022-09-27T03:26:31.367Z,0.62
2022-09-27T03:29:01.707Z,0.66
2022-09-27T03:31:30.794Z,0.65
2022-09-27T03:34:00.899Z,0.68
2022-09-27T03:36:29.159Z,0.67
2022-09-27T03:38:56.708Z,0.63
2022-09-27T03:41:24.254Z,0.60
2022-09-27T03:43:52.437Z,0.57
2022-09-27T03:46:20.407Z,0.48
2022-09-27T03:48:47.945Z,0.48
2022-09-27T03:51:15.874Z,0.49
2022-09-27T03:53:44.096Z,0.49
2022-09-27T03:56:12.035Z,0.54
2022-09-27T03:58:39.526Z,0.56
2022-09-27T04:01:08.330Z,0.66
2022-09-27T04:03:37.056Z,0.68
2022-09-27T04:06:09.051Z,0.65
2022-09-27T04:08:37.737Z,0.66
2022-09-27T04:11:05.984Z,0.70
2022-09-27T04:13:33.642Z,0.79
2022-09-27T04:16:03.147Z,0.86
2022-09-27T04:18:35.334Z,0.99
2022-09-27T04:21:04.525Z,1.14
2022-09-27T04:23:32.512Z,1.28
2022-09-27T04:26:01.183Z,1.44
2022-09-27T04:28:30.424Z,1.62
2022-09-27T04:30:58.175Z,1.77
2022-09-27T04:33:28.477Z,1.94
2022-09-27T04:36:15.583Z,2.03
2022-09-27T04:38:43.565Z,2.12
2022-09-27T04:41:12.140Z,2.21
2022-09-27T04:43:39.966Z,2.29
2022-09-27T04:46:07.633Z,2.38
2022-09-27T04:48:35.675Z,2.44
2022-09-27T04:51:03.415Z,2.54
2022-09-27T04:53:31.379Z,2.62
2022-09-27T04:55:59.866Z,2.68
2022-09-27T04:58:27.748Z,2.81
2022-09-27T05:00:58.063Z,2.94
2022-09-27T05:03:32.757Z,3.08
2022-09-27T05:06:00.973Z,3.26
2022-09-27T05:08:28.870Z,3.27
2022-09-27T05:11:06.827Z,3.39
2022-09-27T05:13:38.641Z,3.52
2022-09-27T05:16:06.360Z,3.59
2022-09-27T05:18:39.693Z,3.60
2022-09-27T05:21:10.854Z,3.67
2022-09-27T05:23:40.107Z,3.81
2022-09-27T05:26:09.332Z,3.95
2022-09-27T05:28:36.844Z,4.00
2022-09-27T05:31:04.504Z,4.10
2022-09-27T05:33:34.576Z,4.25
2022-09-27T05:36:04.819Z,4.38
2022-09-27T05:38:33.021Z,4.49
2022-09-27T05:41:00.713Z,4.67
2022-09-27T05:43:29.162Z,4.81
2022-09-27T05:45:59.070Z,4.97
2022-09-27T05:48:30.069Z,5.08
2022-09-27T05:50:59.542Z,5.17
2022-09-27T05:53:27.123Z,5.30
2022-09-27T05:55:54.985Z,5.36
2022-09-27T05:58:25.409Z,5.45
2022-09-27T06:00:53.519Z,5.44
2022-09-27T06:03:21.450Z,5.68
2022-09-27T06:05:51.721Z,6.16
2022-09-27T06:08:20.746Z,6.72
2022-09-27T06:11:00.616Z,6.63
2022-09-27T06:13:28.622Z,6.89
2022-09-27T06:15:56.629Z,6.93
2022-09-27T06:18:24.359Z,7.09
2022-09-27T06:20:52.247Z,7.30
2022-09-27T06:23:21.399Z,7.16
2022-09-27T06:25:49.652Z,7.45
2022-09-27T06:28:18.351Z,7.39
2022-09-27T06:30:48.306Z,7.46
2022-09-27T06:33:18.275Z,7.58
2022-09-27T06:35:46.705Z,7.80
2022-09-27T06:38:15.924Z,8.16
2022-09-27T06:40:48.416Z,8.19
2022-09-27T06:43:18.037Z,8.02
2022-09-27T06:45:47.040Z,8.13
2022-09-27T06:48:21.021Z,8.15
2022-09-27T06:50:51.533Z,8.99
2022-09-27T06:53:20.571Z,9.43
2022-09-27T06:55:48.193Z,9.12
2022-09-27T06:58:34.357Z,8.78
2022-09-27T07:01:04.391Z,9.02
2022-09-27T07:03:40.783Z,8.76
2022-09-27T07:06:18.179Z,9.21
2022-09-27T07:08:45.791Z,10.52
2022-09-27T07:11:14.638Z,10.05
2022-09-27T07:13:43.933Z,10.43
2022-09-27T07:16:13.474Z,10.20
2022-09-27T07:18:42.382Z,9.83
2022-09-27T07:21:10.806Z,9.67
2022-09-27T07:26:24.222Z,9.93
2022-09-27T07:28:53.562Z,10.01
2022-09-27T07:31:21.676Z,9.94
2022-09-27T07:33:50.013Z,9.55
2022-09-27T07:36:18.235Z,9.83
2022-09-27T07:38:46.943Z,10.22
2022-09-27T07:41:15.697Z,11.50
2022-09-27T07:43:46.558Z,11.66
2022-09-27T07:46:15.872Z,11.01
2022-09-27T07:48:44.196Z,11.58
2022-09-27T07:51:12.330Z,12.79
2022-09-27T07:53:43.974Z,13.36
2022-09-27T07:56:12.011Z,13.60
2022-09-27T07:58:40.553Z,13.81
2022-09-27T08:01:09.222Z,14.43
2022-09-27T08:03:38.474Z,14.73
2022-09-27T08:06:06.282Z,14.76
2022-09-27T08:08:33.833Z,15.08
2022-09-27T08:11:02.582Z,15.32
2022-09-27T08:13:30.603Z,15.48
2022-09-27T08:16:01.674Z,15.87
2022-09-27T08:18:33.214Z,15.14
2022-09-27T08:21:01.174Z,15.96
2022-09-27T08:23:29.227Z,16.30
2022-09-27T08:25:59.524Z,16.03
2022-09-27T08:28:27.580Z,16.04
2022-09-27T08:30:55.471Z,16.42
2022-09-27T08:33:31.294Z,16.81
2022-09-27T08:36:00.435Z,16.47
2022-09-27T08:38:28.958Z,16.95
2022-09-27T08:41:03.170Z,17.10
2022-09-27T08:43:45.471Z,16.83
2022-09-27T08:46:21.147Z,16.73
2022-09-27T08:48:52.053Z,16.76
2022-09-27T08:51:22.161Z,17.38
2022-09-27T08:53:56.997Z,17.57
2022-09-27T08:56:25.053Z,17.84
2022-09-27T08:59:02.866Z,17.17
2022-09-27T09:01:30.742Z,17.10
2022-09-27T09:04:01.898Z,16.47
2022-09-27T09:06:35.069Z,18.17
2022-09-27T09:09:15.402Z,17.93
2022-09-27T09:12:25.398Z,17.02
2022-09-27T09:14:59.333Z,17.47
2022-09-27T09:17:38.826Z,17.97
2022-09-27T09:20:28.011Z,18.53
2022-09-27T09:23:15.001Z,19.28
2022-09-27T09:25:43.378Z,19.23
2022-09-27T09:28:10.919Z,18.27
2022-09-27T09:30:52.337Z,18.39
2022-09-27T09:33:23.552Z,18.82
2022-09-27T09:35:55.684Z,20.18
2022-09-27T09:38:27.581Z,19.16
2022-09-27T09:41:04.105Z,20.18
2022-09-27T09:43:32.085Z,19.20
2022-09-27T09:46:13.307Z,18.65
2022-09-27T09:49:07.466Z,18.43
2022-09-27T09:51:47.908Z,17.50
2022-09-27T09:54:34.327Z,17.48
2022-09-27T09:57:13.082Z,18.25
2022-09-27T09:59:44.307Z,18.35
2022-09-27T10:02:31.249Z,18.81
2022-09-27T10:05:06.828Z,18.29
2022-09-27T10:07:40.814Z,17.61
2022-09-27T10:10:11.364Z,16.39
2022-09-27T10:12:42.768Z,15.71
2022-09-27T10:15:15.304Z,15.63
2022-09-27T10:17:45.091Z,16.53
2022-09-27T10:20:25.183Z,17.80
2022-09-27T10:22:55.855Z,17.97
2022-09-27T10:25:28.144Z,17.25
2022-09-27T10:27:56.545Z,18.09
2022-09-27T10:30:32.383Z,18.19
2022-09-27T10:33:03.723Z,16.88
2022-09-27T10:35:36.986Z,16.83
2022-09-27T10:38:23.155Z,16.04
2022-09-27T10:40:52.978Z,15.34
2022-09-27T10:43:29.572Z,15.66
2022-09-27T10:46:21.061Z,15.31
2022-09-27T10:49:08.126Z,14.83
2022-09-27T10:51:36.606Z,15.26
2022-09-27T10:54:18.131Z,15.76
2022-09-27T10:56:45.915Z,14.94
2022-09-27T10:59:19.070Z,14.46
2022-09-27T11:01:48.800Z,13.43
2022-09-27T11:04:24.550Z,14.10
2022-09-27T11:06:52.403Z,14.63
2022-09-27T11:09:24.644Z,13.70
2022-09-27T11:12:11.411Z,13.65
2022-09-27T11:14:40.347Z,13.29
2022-09-27T11:17:07.882Z,13.03
2022-09-27T11:19:46.836Z,12.84
2022-09-27T11:22:17.152Z,12.37
2022-09-27T11:25:01.343Z,14.43
2022-09-27T11:27:49.689Z,13.90
2022-09-27T11:30:21.012Z,15.03
2022-09-27T11:32:52.282Z,16.81
2022-09-27T11:35:33.669Z,16.61
2022-09-27T11:38:07.817Z,17.34
2022-09-27T11:40:38.232Z,17.64
2022-09-27T11:43:06.203Z,17.78
2022-09-27T11:45:56.229Z,16.92
2022-09-27T11:48:28.235Z,16.64
2022-09-27T11:51:05.386Z,15.82
2022-09-27T11:53:36.261Z,16.01
2022-09-27T11:56:11.213Z,15.39
2022-09-27T11:59:01.498Z,15.69
2022-09-27T12:01:52.008Z,15.57
2022-09-27T12:04:20.012Z,14.76
2022-09-27T12:06:53.724Z,14.84
2022-09-27T12:09:24.696Z,14.78
2022-09-27T12:11:55.084Z,14.92
2022-09-27T12:14:32.243Z,14.91
2022-09-27T12:17:02.536Z,14.57
2022-09-27T12:19:36.452Z,15.44
2022-09-27T12:22:06.371Z,14.56
2022-09-27T12:24:35.627Z,14.14
2022-09-27T12:27:10.091Z,14.12
2022-09-27T12:29:45.582Z,14.27
2022-09-27T12:32:32.951Z,14.51
2022-09-27T12:35:00.976Z,14.85
2022-09-27T12:37:46.138Z,14.69
2022-09-27T12:40:20.734Z,14.18
2022-09-27T12:43:03.029Z,13.58
2022-09-27T12:45:32.367Z,14.29
2022-09-27T12:47:59.944Z,14.35
2022-09-27T12:50:37.604Z,14.66
2022-09-27T12:53:12.182Z,14.08
2022-09-27T12:55:58.587Z,14.36
2022-09-27T12:58:26.780Z,14.54
2022-09-27T13:01:10.446Z,14.51
2022-09-27T13:03:44.005Z,14.23
2022-09-27T13:06:32.056Z,14.70
2022-09-27T13:09:19.320Z,14.11
2022-09-27T13:12:05.909Z,14.61
2022-09-27T13:14:36.040Z,13.58
2022-09-27T13:17:03.573Z,14.68
2022-09-27T13:19:39.565Z,13.85
2022-09-27T13:22:22.940Z,13.87
2022-09-27T13:24:52.189Z,12.82
2022-09-27T13:27:30.437Z,13.59
2022-09-27T13:30:16.676Z,13.60
2022-09-27T13:33:40.067Z,13.69
2022-09-27T13:36:19.613Z,13.46
2022-09-27T13:39:06.550Z,13.06
2022-09-27T13:41:46.946Z,12.86
2022-09-27T13:44:24.039Z,12.98
2022-09-27T13:46:56.049Z,13.41
2022-09-27T13:49:44.254Z,12.80
2022-09-27T13:52:41.527Z,13.15
2022-09-27T13:55:29.176Z,12.95
2022-09-27T13:58:03.646Z,12.17
2022-09-27T14:00:40.436Z,12.27
2022-09-27T14:03:08.771Z,12.14
2022-09-27T14:06:09.372Z,13.02
2022-09-27T14:08:45.767Z,12.58
2022-09-27T14:11:15.899Z,12.53
2022-09-27T14:13:46.874Z,12.51
2022-09-27T14:16:16.439Z,12.34
2022-09-27T14:18:58.602Z,12.53
2022-09-27T14:21:29.748Z,12.24
2022-09-27T14:24:24.142Z,12.40
2022-09-27T14:27:03.284Z,12.35
2022-09-27T14:29:32.848Z,11.77
2022-09-27T14:32:09.554Z,12.18
2022-09-27T14:34:37.734Z,11.95
2022-09-27T14:37:24.304Z,12.06
2022-09-27T14:40:15.695Z,11.79
2022-09-27T14:42:43.806Z,11.34
2022-09-27T14:45:11.819Z,11.22
2022-09-27T14:47:47.141Z,11.69
2022-09-27T14:50:20.317Z,11.30
2022-09-27T14:52:49.820Z,11.04
2022-09-27T14:55:19.346Z,11.41
2022-09-27T14:57:51.450Z,11.10
2022-09-27T15:00:23.264Z,10.88
2022-09-27T15:02:54.544Z,10.81
2022-09-27T15:05:24.195Z,10.87
2022-09-27T15:07:52.687Z,10.69
2022-09-27T15:10:21.915Z,10.81
2022-09-27T15:12:51.109Z,10.98
2022-09-27T15:15:26.236Z,10.94
2022-09-27T15:17:54.263Z,10.95
2022-09-27T15:20:22.451Z,10.94
2022-09-27T15:22:49.944Z,10.65
2022-09-27T15:25:20.636Z,10.54
2022-09-27T15:27:51.352Z,10.53
2022-09-27T15:30:21.166Z,10.41
2022-09-27T15:32:50.112Z,10.44
2022-09-27T15:35:20.664Z,10.41
2022-09-27T15:37:51.137Z,10.51
2022-09-27T15:40:18.964Z,10.44
2022-09-27T15:43:00.695Z,10.13
2022-09-27T15:45:34.096Z,10.11
2022-09-27T15:48:10.864Z,10.13
2022-09-27T15:50:41.518Z,10.08
2022-09-27T15:53:10.160Z,9.88
2022-09-27T15:55:42.379Z,9.54
2022-09-27T15:58:16.899Z,9.70
2022-09-27T16:00:58.647Z,9.78
2022-09-27T16:03:27.105Z,9.76
2022-09-27T16:05:56.333Z,9.86
2022-09-27T16:08:24.280Z,9.57
2022-09-27T16:10:53.459Z,9.61
2022-09-27T16:13:21.481Z,9.94
2022-09-27T16:15:49.761Z,9.55
2022-09-27T16:18:20.231Z,9.78
2022-09-27T16:20:47.819Z,9.73
2022-09-27T16:23:15.304Z,9.70
2022-09-27T16:25:43.113Z,9.42
2022-09-27T16:28:11.004Z,9.69
2022-09-27T16:30:38.523Z,9.74
2022-09-27T16:33:06.455Z,9.50
2022-09-27T16:38:19.504Z,9.00
2022-09-27T16:40:47.095Z,9.56
2022-09-27T16:43:14.496Z,9.56
2022-09-27T16:45:42.600Z,9.43
2022-09-27T16:48:10.345Z,9.41
2022-09-27T16:50:56.570Z,9.42
2022-09-27T16:53:24.678Z,9.03
2022-09-27T16:55:52.440Z,8.81
2022-09-27T16:58:20.066Z,8.89
2022-09-27T17:00:48.018Z,8.82
2022-09-27T17:03:16.051Z,8.94
2022-09-27T17:05:43.659Z,8.98
2022-09-27T17:08:11.481Z,8.83
2022-09-27T17:10:44.168Z,8.73
2022-09-27T17:13:12.156Z,8.74
2022-09-27T17:15:39.807Z,8.63
2022-09-27T17:18:07.406Z,8.63
2022-09-27T17:20:35.463Z,8.75
2022-09-27T17:23:03.625Z,8.41
2022-09-27T17:25:31.812Z,8.45
2022-09-27T17:28:00.133Z,8.54
2022-09-27T17:30:28.095Z,8.25
2022-09-27T17:32:55.717Z,8.38
2022-09-27T17:35:24.137Z,8.13
2022-09-27T17:37:51.796Z,8.33
2022-09-27T17:40:19.424Z,8.35
2022-09-27T17:42:47.411Z,8.31
2022-09-27T17:45:15.087Z,8.40
2022-09-27T17:48:01.140Z,8.50
2022-09-27T17:50:29.339Z,8.46
2022-09-27T17:52:57.928Z,8.13
2022-09-27T17:55:26.141Z,8.12
2022-09-27T17:57:54.226Z,8.28
2022-09-27T18:00:21.952Z,8.06
2022-09-27T18:02:50.063Z,8.04
2022-09-27T18:05:21.404Z,8.15
2022-09-27T18:07:49.512Z,8.10
2022-09-27T18:10:18.097Z,8.34
2022-09-27T18:12:45.681Z,8.18
2022-09-27T18:15:13.502Z,8.02
2022-09-27T18:17:41.370Z,8.18
2022-09-27T18:20:09.129Z,8.03
2022-09-27T18:22:36.859Z,8.06
2022-09-27T18:25:05.749Z,7.98
2022-09-27T18:27:34.888Z,8.23
2022-09-27T18:30:03.648Z,8.18
2022-09-27T18:32:31.577Z,8.34
2022-09-27T18:34:59.138Z,8.40
2022-09-27T18:37:27.342Z,8.23
2022-09-27T18:39:55.966Z,8.38
2022-09-27T18:42:26.327Z,8.52
2022-09-27T18:44:53.736Z,8.31
2022-09-27T18:47:21.703Z,8.19
2022-09-27T18:49:49.454Z,7.89
2022-09-27T18:52:16.964Z,8.20
2022-09-27T18:54:44.843Z,8.26
2022-09-27T18:57:12.562Z,8.00
2022-09-27T18:59:40.024Z,8.25
2022-09-27T19:02:10.044Z,8.09
2022-09-27T19:04:37.539Z,7.94
2022-09-27T19:07:05.136Z,7.84
2022-09-27T19:09:33.094Z,7.99
2022-09-27T19:12:00.649Z,7.88
2022-09-27T19:14:28.332Z,7.80
2022-09-27T19:16:56.492Z,7.80
2022-09-27T19:19:24.491Z,7.80
2022-09-27T19:21:51.929Z,7.78
2022-09-27T19:24:19.830Z,7.70
2022-09-27T19:26:47.349Z,7.61
2022-09-27T19:29:15.137Z,7.55
2022-09-27T19:31:43.109Z,7.58
2022-09-27T19:34:11.256Z,7.50
2022-09-27T19:36:38.768Z,7.51
2022-09-27T19:39:06.886Z,7.42
2022-09-27T19:41:34.389Z,7.44
2022-09-27T19:44:02.044Z,7.51
2022-09-27T19:46:29.970Z,7.68
2022-09-27T19:48:57.851Z,7.72
2022-09-27T19:51:26.400Z,7.50
2022-09-27T19:53:54.874Z,7.45
2022-09-27T19:56:23.316Z,7.47
2022-09-27T19:58:50.762Z,7.45
2022-09-27T20:01:20.578Z,7.30
2022-09-27T20:03:49.516Z,7.22
2022-09-27T20:06:18.502Z,7.55
2022-09-27T20:08:48.126Z,7.48
2022-09-27T20:11:17.057Z,7.51
2022-09-27T20:13:45.011Z,7.35
2022-09-27T20:16:14.129Z,7.16
2022-09-27T20:18:43.326Z,7.38
2022-09-27T20:21:11.156Z,7.56
2022-09-27T20:23:39.050Z,7.50
2022-09-27T20:26:08.574Z,7.71
2022-09-27T20:28:40.670Z,7.34
2022-09-27T20:31:08.544Z,7.36
2022-09-27T20:33:42.049Z,7.21
2022-09-27T20:36:14.361Z,7.41
2022-09-27T20:38:42.752Z,7.47
2022-09-27T20:41:20.347Z,7.43
2022-09-27T20:43:48.584Z,7.41
2022-09-27T20:49:07.288Z,7.37
2022-09-27T20:51:36.415Z,7.38
2022-09-27T20:56:50.686Z,7.21
2022-09-27T20:59:22.997Z,7.30
2022-09-27T21:01:52.064Z,7.32
2022-09-27T21:04:20.428Z,7.11
2022-09-27T21:06:48.005Z,7.29
2022-09-27T21:09:19.511Z,7.25
2022-09-27T21:11:47.977Z,7.14
2022-09-27T21:14:16.018Z,7.33
2022-09-27T21:16:43.692Z,7.33
2022-09-27T21:19:11.211Z,7.25
2022-09-27T21:21:39.124Z,7.24
2022-09-27T21:24:06.753Z,7.18
2022-09-27T21:26:34.363Z,7.14
2022-09-27T21:29:05.725Z,7.27
2022-09-27T21:31:33.912Z,7.24
2022-09-27T21:34:03.889Z,7.35
2022-09-27T21:36:32.741Z,7.28
2022-09-27T21:39:00.740Z,7.11
2022-09-27T21:41:28.893Z,7.14
2022-09-27T21:43:56.486Z,7.12
2022-09-27T21:46:27.877Z,7.16
2022-09-27T21:48:57.073Z,7.12
2022-09-27T21:51:26.008Z,7.39
2022-09-27T21:53:55.322Z,7.14
2022-09-27T21:56:23.973Z,7.05
2022-09-27T21:58:51.726Z,7.04
2022-09-27T22:01:21.020Z,7.01
2022-09-27T22:03:49.628Z,7.11
2022-09-27T22:06:20.886Z,7.36
2022-09-27T22:08:49.585Z,7.16
2022-09-27T22:11:37.057Z,7.38
2022-09-27T22:14:07.124Z,7.14
2022-09-27T22:16:34.646Z,7.07
2022-09-27T22:19:02.177Z,7.12
2022-09-27T22:21:32.036Z,7.13
2022-09-27T22:24:04.050Z,7.39
2022-09-27T22:26:36.556Z,7.18
2022-09-27T22:29:04.419Z,7.19
2022-09-27T22:31:32.193Z,7.22
2022-09-27T22:34:04.883Z,7.33
2022-09-27T22:36:32.662Z,7.18
2022-09-27T22:39:00.540Z,7.31
2022-09-27T22:41:29.666Z,7.21
2022-09-27T22:43:57.627Z,7.18
2022-09-27T22:46:25.763Z,7.25
2022-09-27T22:48:53.414Z,7.06
2022-09-27T22:51:20.901Z,7.10
2022-09-27T22:53:48.781Z,7.11
2022-09-27T22:56:17.428Z,7.24
2022-09-27T22:58:45.380Z,7.18
2022-09-27T23:01:20.573Z,7.39
2022-09-27T23:03:49.478Z,7.11
2022-09-27T23:06:18.258Z,6.98
2022-09-27T23:08:46.361Z,7.24
2022-09-27T23:11:15.509Z,7.29
2022-09-27T23:13:44.039Z,7.04
2022-09-27T23:16:12.570Z,6.99
2022-09-27T23:18:40.474Z,7.19
2022-09-27T23:21:09.704Z,7.04
2022-09-27T23:23:41.684Z,7.10
2022-09-27T23:26:10.947Z,7.16
2022-09-27T23:28:38.367Z,7.16
2022-09-27T23:31:05.920Z,7.07
2022-09-27T23:33:34.574Z,7.12
2022-09-27T23:36:03.111Z,7.00
2022-09-27T23:38:31.619Z,6.97
2022-09-27T23:41:00.512Z,7.08
2022-09-27T23:43:28.168Z,7.06
2022-09-27T23:45:57.528Z,6.87
2022-09-27T23:48:26.345Z,6.98
2022-09-27T23:50:54.139Z,6.98
2022-09-27T23:53:21.959Z,7.10
2022-09-27T23:55:59.899Z,7.07
2022-09-27T23:58:27.354Z,7.14
